Sakura — JG5711 — position and weather

sailwx.info

Track history (hours):
 
Tides and Currents Weather Stations Pressure Air Temp Water Temp Dewpoint Dewpoint Depression Visibility Wind Speed Wind Dir Waves Ship Positions

Sakura

Last reported at 2017-Jan-20 07:33 UTC. Time now 2017-Jan-20 07:56 UTC.
Position N 35°28' E 139°39'.

Length 32 m; draft 3.6 m.

Type: Tug. MMSI: 431101178.

Date/timePositionNaut miles runAvg speedWind from/ knotsBaromVisibWave heightAir tempDewpointWater temp
2017-Jan-20 07:33N 35°28' E 139°39'0 0.3
2017-Jan-20 06:33N 35°27' E 139°39'0 0.0
2017-Jan-20 05:33N 35°27' E 139°39'0 0.0
2017-Jan-20 04:33N 35°27' E 139°39'0 0.0
2017-Jan-20 03:33N 35°27' E 139°39'2 2.1
2017-Jan-20 02:33N 35°26' E 139°41'2 2.1
2017-Jan-20 01:33N 35°27' E 139°39'0 0.0
2017-Jan-20 00:33N 35°27' E 139°39'0 0.0
2017-Jan-19 23:33N 35°27' E 139°39'0 0.0
2017-Jan-19 22:33N 35°27' E 139°39'0 0.0
2017-Jan-18 23:34N 35°27' E 139°39'0 0.2
2017-Jan-18 22:34N 35°27' E 139°39'4 3.5
2017-Jan-18 21:34N 35°27' E 139°43'0 0.4
2017-Jan-18 20:33N 35°27' E 139°43'0 0.0
2017-Jan-18 19:34N 35°27' E 139°43'2 1.9
2017-Jan-18 18:34N 35°25' E 139°42'1 1.4
2017-Jan-18 17:34N 35°24' E 139°41'1 1.0
2017-Jan-18 16:33N 35°24' E 139°40'0 0.0
2017-Jan-18 15:34N 35°24' E 139°40'0 0.0
2017-Jan-18 14:33N 35°24' E 139°40'4 3.5
2017-Jan-18 13:33N 35°27' E 139°42'5 5.1
2017-Jan-18 12:33N 35°29' E 139°47'7 6.5
2017-Jan-18 11:33N 35°27' E 139°39'0 0.0
2017-Jan-18 10:33N 35°27' E 139°39'0 0.0
2017-Jan-18 09:33N 35°27' E 139°39'1 1.2
2017-Jan-18 08:33N 35°27' E 139°41'0 0.2
2017-Jan-18 07:33N 35°27' E 139°41'2 1.9
2017-Jan-18 06:33N 35°27' E 139°39'0 0.0
2017-Jan-18 05:33N 35°27' E 139°39'0 0.0
2017-Jan-18 04:33N 35°27' E 139°39'0 0.0
2017-Jan-18 03:33N 35°27' E 139°39'4 3.7
2017-Jan-18 02:33N 35°24' E 139°40'2 1.7
2017-Jan-18 01:33N 35°24' E 139°38'0 0.5
2017-Jan-18 00:33N 35°24' E 139°38'3 2.7
2017-Jan-17 23:33N 35°23' E 139°41'4 4.4
2017-Jan-17 22:33N 35°27' E 139°39'0 0.0
2017-Jan-17 07:24N 35°27' E 139°39'0 0.0
2017-Jan-17 06:33N 35°27' E 139°39'0 0.0
2017-Jan-17 05:33N 35°27' E 139°39'0 0.0
2017-Jan-17 04:33N 35°27' E 139°39'0 0.0
2017-Jan-17 03:33N 35°27' E 139°39'0 0.0
2017-Jan-17 02:33N 35°27' E 139°39'0 0.0
2017-Jan-17 01:33N 35°27' E 139°39'0 0.0
2017-Jan-17 00:33N 35°27' E 139°39'4 3.6
2017-Jan-16 23:33N 35°24' E 139°37'1 1.2
2017-Jan-16 22:33N 35°24' E 139°39'5 4.8
2017-Jan-16 21:33N 35°26' E 139°44'5 4.7
2017-Jan-16 20:34N 35°27' E 139°39'0 0.0
2017-Jan-16 07:12N 35°27' E 139°39'0 0.0
2017-Jan-16 06:33N 35°27' E 139°39'0 0.0
2017-Jan-16 05:33N 35°27' E 139°39'0 0.0
2017-Jan-16 04:33N 35°27' E 139°39'0 0.0
2017-Jan-16 03:33N 35°27' E 139°39'1 0.5
2017-Jan-16 02:33N 35°27' E 139°39'4 3.6
2017-Jan-16 01:33N 35°24' E 139°41'3 3.1
2017-Jan-16 00:33N 35°27' E 139°40'1 1.4
2017-Jan-15 23:33N 35°27' E 139°39'0 0.0
2017-Jan-15 22:33N 35°27' E 139°39'0 0.0
2017-Jan-14 23:13N 35°27' E 139°39'6 8.6
2017-Jan-14 22:33N 35°28' E 139°45'2 2.2
2017-Jan-14 21:33N 35°29' E 139°43'2 1.9
2017-Jan-14 20:33N 35°28' E 139°42'0 0.0
2017-Jan-14 19:33N 35°28' E 139°42'0 0.0
2017-Jan-14 18:33N 35°28' E 139°42'0 0.0
2017-Jan-14 17:33N 35°28' E 139°42'0 0.0
2017-Jan-14 16:33N 35°28' E 139°42'2 2.4
2017-Jan-14 15:34N 35°29' E 139°45'1 1.1
2017-Jan-14 14:33N 35°28' E 139°44'0 0.0
2017-Jan-14 13:33N 35°28' E 139°44'0 0.0
2017-Jan-14 12:33N 35°28' E 139°44'1 1.4
2017-Jan-14 11:33N 35°27' E 139°42'1 1.3
2017-Jan-14 10:33N 35°26' E 139°43'1 1.2
2017-Jan-14 09:33N 35°27' E 139°42'1 1.1
2017-Jan-14 08:33N 35°27' E 139°41'3 3.4
2017-Jan-14 07:33N 35°24' E 139°39'2 1.6
2017-Jan-14 06:33N 35°23' E 139°41'4 4.2
2017-Jan-14 05:33N 35°27' E 139°39'0 0.0
2017-Jan-14 04:33N 35°27' E 139°39'0 0.0
2017-Jan-14 03:33N 35°27' E 139°39'5 1.2
2017-Jan-13 23:33N 35°28' E 139°44'5 4.8
2017-Jan-13 22:33N 35°27' E 139°39'0 0.0
2017-Jan-13 21:33N 35°27' E 139°39'0 0.0
2017-Jan-13 06:33N 35°27' E 139°39'0 0.0
2017-Jan-13 05:33N 35°27' E 139°39'0 0.0
2017-Jan-13 04:33N 35°27' E 139°39'0 0.0
2017-Jan-13 03:33N 35°27' E 139°39'0 0.0
2017-Jan-13 02:33N 35°27' E 139°39'0 0.0
2017-Jan-13 01:33N 35°27' E 139°39'0 0.0
2017-Jan-13 00:33N 35°27' E 139°39'4 3.8
2017-Jan-12 23:33N 35°29' E 139°43'2 2.3
2017-Jan-12 22:33N 35°27' E 139°42'0 0.0
2017-Jan-12 21:33N 35°27' E 139°42'1 1.4
2017-Jan-12 20:33N 35°26' E 139°41'2 2.1
2017-Jan-12 19:33N 35°27' E 139°39'0 0.0
2017-Jan-12 18:33N 35°27' E 139°39'0 0.0
2017-Jan-12 17:33N 35°27' E 139°39'0 0.0
2017-Jan-12 16:33N 35°27' E 139°39'0 0.0
2017-Jan-12 15:33N 35°27' E 139°39'0 0.0
2017-Jan-12 14:33N 35°27' E 139°39'0 0.0
2017-Jan-12 13:33N 35°27' E 139°39'0 0.0
2017-Jan-12 12:33N 35°27' E 139°39'0 0.0
2017-Jan-12 11:33N 35°27' E 139°39'0 0.0
2017-Jan-12 10:33N 35°27' E 139°39'4 4.3
2017-Jan-12 09:33N 35°24' E 139°41'0 0.5
2017-Jan-12 08:33N 35°24' E 139°42'4 4.2
2017-Jan-12 07:33N 35°27' E 139°39'0 0.0
2017-Jan-12 06:33N 35°27' E 139°39'0 0.0
2017-Jan-12 05:33N 35°27' E 139°39'0 0.0
2017-Jan-12 04:33N 35°27' E 139°39'0 0.0
2017-Jan-12 03:33N 35°27' E 139°39'0 0.0
2017-Jan-12 02:33N 35°27' E 139°39'0 0.3
2017-Jan-12 01:33N 35°28' E 139°39'5 4.8
2017-Jan-12 00:33N 35°29' E 139°44'1 1.2
2017-Jan-11 23:33N 35°30' E 139°46'2 1.6
2017-Jan-11 22:34N 35°30' E 139°47'2 1.5
2017-Jan-11 21:33N 35°31' E 139°46'7 7.1
2017-Jan-11 20:33N 35°27' E 139°39'1 0.1
2017-Jan-11 08:34N 35°27' E 139°39'2 1.8
2017-Jan-11 07:33N 35°26' E 139°41'1 1.5
2017-Jan-11 06:33N 35°27' E 139°39'0 0.0
2017-Jan-11 05:33N 35°27' E 139°39'0 0.4
2017-Jan-11 04:33N 35°27' E 139°39'1 0.6
2017-Jan-11 03:33N 35°27' E 139°39'0 0.1
2017-Jan-11 02:33N 35°27' E 139°39'0 0.0
2017-Jan-11 01:33N 35°27' E 139°39'0 0.0
2017-Jan-11 00:33N 35°27' E 139°39'0 0.0
2017-Jan-10 23:33N 35°27' E 139°39'0 0.0
2017-Jan-10 22:33N 35°27' E 139°39'  
Track history (hours):
 
Tides and Currents Weather Stations Pressure Air Temp Water Temp Dewpoint Dewpoint Depression Visibility Wind Speed Wind Dir Waves Ship Positions

Sakura

Last reported at 2017-Jan-20 07:33 UTC. Time now 2017-Jan-20 07:56 UTC.
Position N 35°28' E 139°39'.

Length 32 m; draft 3.6 m.

Type: Tug. MMSI: 431101178.

Date/timePositionNaut miles runAvg speedWind from/ knotsBaromVisibWave heightAir tempDewpointWater temp
2017-Jan-20 07:33N 35°28' E 139°39'0 0.3
2017-Jan-20 06:33N 35°27' E 139°39'0 0.0
2017-Jan-20 05:33N 35°27' E 139°39'0 0.0
2017-Jan-20 04:33N 35°27' E 139°39'0 0.0
2017-Jan-20 03:33N 35°27' E 139°39'2 2.1
2017-Jan-20 02:33N 35°26' E 139°41'2 2.1
2017-Jan-20 01:33N 35°27' E 139°39'0 0.0
2017-Jan-20 00:33N 35°27' E 139°39'0 0.0
2017-Jan-19 23:33N 35°27' E 139°39'0 0.0
2017-Jan-19 22:33N 35°27' E 139°39'0 0.0
2017-Jan-18 23:34N 35°27' E 139°39'0 0.2
2017-Jan-18 22:34N 35°27' E 139°39'4 3.5
2017-Jan-18 21:34N 35°27' E 139°43'0 0.4
2017-Jan-18 20:33N 35°27' E 139°43'0 0.0
2017-Jan-18 19:34N 35°27' E 139°43'2 1.9
2017-Jan-18 18:34N 35°25' E 139°42'1 1.4
2017-Jan-18 17:34N 35°24' E 139°41'1 1.0
2017-Jan-18 16:33N 35°24' E 139°40'0 0.0
2017-Jan-18 15:34N 35°24' E 139°40'0 0.0
2017-Jan-18 14:33N 35°24' E 139°40'4 3.5
2017-Jan-18 13:33N 35°27' E 139°42'5 5.1
2017-Jan-18 12:33N 35°29' E 139°47'7 6.5
2017-Jan-18 11:33N 35°27' E 139°39'0 0.0
2017-Jan-18 10:33N 35°27' E 139°39'0 0.0
2017-Jan-18 09:33N 35°27' E 139°39'1 1.2
2017-Jan-18 08:33N 35°27' E 139°41'0 0.2
2017-Jan-18 07:33N 35°27' E 139°41'2 1.9
2017-Jan-18 06:33N 35°27' E 139°39'0 0.0
2017-Jan-18 05:33N 35°27' E 139°39'0 0.0
2017-Jan-18 04:33N 35°27' E 139°39'0 0.0
2017-Jan-18 03:33N 35°27' E 139°39'4 3.7
2017-Jan-18 02:33N 35°24' E 139°40'2 1.7
2017-Jan-18 01:33N 35°24' E 139°38'0 0.5
2017-Jan-18 00:33N 35°24' E 139°38'3 2.7
2017-Jan-17 23:33N 35°23' E 139°41'4 4.4
2017-Jan-17 22:33N 35°27' E 139°39'0 0.0
2017-Jan-17 07:24N 35°27' E 139°39'0 0.0
2017-Jan-17 06:33N 35°27' E 139°39'0 0.0
2017-Jan-17 05:33N 35°27' E 139°39'0 0.0
2017-Jan-17 04:33N 35°27' E 139°39'0 0.0
2017-Jan-17 03:33N 35°27' E 139°39'0 0.0
2017-Jan-17 02:33N 35°27' E 139°39'0 0.0
2017-Jan-17 01:33N 35°27' E 139°39'0 0.0
2017-Jan-17 00:33N 35°27' E 139°39'4 3.6
2017-Jan-16 23:33N 35°24' E 139°37'1 1.2
2017-Jan-16 22:33N 35°24' E 139°39'5 4.8
2017-Jan-16 21:33N 35°26' E 139°44'5 4.7
2017-Jan-16 20:34N 35°27' E 139°39'0 0.0
2017-Jan-16 07:12N 35°27' E 139°39'0 0.0
2017-Jan-16 06:33N 35°27' E 139°39'0 0.0
2017-Jan-16 05:33N 35°27' E 139°39'0 0.0
2017-Jan-16 04:33N 35°27' E 139°39'0 0.0
2017-Jan-16 03:33N 35°27' E 139°39'1 0.5
2017-Jan-16 02:33N 35°27' E 139°39'4 3.6
2017-Jan-16 01:33N 35°24' E 139°41'3 3.1
2017-Jan-16 00:33N 35°27' E 139°40'1 1.4
2017-Jan-15 23:33N 35°27' E 139°39'0 0.0
2017-Jan-15 22:33N 35°27' E 139°39'0 0.0
2017-Jan-14 23:13N 35°27' E 139°39'6 8.6
2017-Jan-14 22:33N 35°28' E 139°45'2 2.2
2017-Jan-14 21:33N 35°29' E 139°43'2 1.9
2017-Jan-14 20:33N 35°28' E 139°42'0 0.0
2017-Jan-14 19:33N 35°28' E 139°42'0 0.0
2017-Jan-14 18:33N 35°28' E 139°42'0 0.0
2017-Jan-14 17:33N 35°28' E 139°42'0 0.0
2017-Jan-14 16:33N 35°28' E 139°42'2 2.4
2017-Jan-14 15:34N 35°29' E 139°45'1 1.1
2017-Jan-14 14:33N 35°28' E 139°44'0 0.0
2017-Jan-14 13:33N 35°28' E 139°44'0 0.0
2017-Jan-14 12:33N 35°28' E 139°44'1 1.4
2017-Jan-14 11:33N 35°27' E 139°42'1 1.3
2017-Jan-14 10:33N 35°26' E 139°43'1 1.2
2017-Jan-14 09:33N 35°27' E 139°42'1 1.1
2017-Jan-14 08:33N 35°27' E 139°41'3 3.4
2017-Jan-14 07:33N 35°24' E 139°39'2 1.6
2017-Jan-14 06:33N 35°23' E 139°41'4 4.2
2017-Jan-14 05:33N 35°27' E 139°39'0 0.0
2017-Jan-14 04:33N 35°27' E 139°39'0 0.0
2017-Jan-14 03:33N 35°27' E 139°39'5 1.2
2017-Jan-13 23:33N 35°28' E 139°44'5 4.8
2017-Jan-13 22:33N 35°27' E 139°39'0 0.0
2017-Jan-13 21:33N 35°27' E 139°39'0 0.0
2017-Jan-13 06:33N 35°27' E 139°39'0 0.0
2017-Jan-13 05:33N 35°27' E 139°39'0 0.0
2017-Jan-13 04:33N 35°27' E 139°39'0 0.0
2017-Jan-13 03:33N 35°27' E 139°39'0 0.0
2017-Jan-13 02:33N 35°27' E 139°39'0 0.0
2017-Jan-13 01:33N 35°27' E 139°39'0 0.0
2017-Jan-13 00:33N 35°27' E 139°39'4 3.8
2017-Jan-12 23:33N 35°29' E 139°43'2 2.3
2017-Jan-12 22:33N 35°27' E 139°42'0 0.0
2017-Jan-12 21:33N 35°27' E 139°42'1 1.4
2017-Jan-12 20:33N 35°26' E 139°41'2 2.1
2017-Jan-12 19:33N 35°27' E 139°39'0 0.0
2017-Jan-12 18:33N 35°27' E 139°39'0 0.0
2017-Jan-12 17:33N 35°27' E 139°39'0 0.0
2017-Jan-12 16:33N 35°27' E 139°39'0 0.0
2017-Jan-12 15:33N 35°27' E 139°39'0 0.0
2017-Jan-12 14:33N 35°27' E 139°39'0 0.0
2017-Jan-12 13:33N 35°27' E 139°39'0 0.0
2017-Jan-12 12:33N 35°27' E 139°39'0 0.0
2017-Jan-12 11:33N 35°27' E 139°39'0 0.0
2017-Jan-12 10:33N 35°27' E 139°39'4 4.3
2017-Jan-12 09:33N 35°24' E 139°41'0 0.5
2017-Jan-12 08:33N 35°24' E 139°42'4 4.2
2017-Jan-12 07:33N 35°27' E 139°39'0 0.0
2017-Jan-12 06:33N 35°27' E 139°39'0 0.0
2017-Jan-12 05:33N 35°27' E 139°39'0 0.0
2017-Jan-12 04:33N 35°27' E 139°39'0 0.0
2017-Jan-12 03:33N 35°27' E 139°39'0 0.0
2017-Jan-12 02:33N 35°27' E 139°39'0 0.3
2017-Jan-12 01:33N 35°28' E 139°39'5 4.8
2017-Jan-12 00:33N 35°29' E 139°44'1 1.2
2017-Jan-11 23:33N 35°30' E 139°46'2 1.6
2017-Jan-11 22:34N 35°30' E 139°47'2 1.5
2017-Jan-11 21:33N 35°31' E 139°46'7 7.1
2017-Jan-11 20:33N 35°27' E 139°39'1 0.1
2017-Jan-11 08:34N 35°27' E 139°39'2 1.8
2017-Jan-11 07:33N 35°26' E 139°41'1 1.5
2017-Jan-11 06:33N 35°27' E 139°39'0 0.0
2017-Jan-11 05:33N 35°27' E 139°39'0 0.4
2017-Jan-11 04:33N 35°27' E 139°39'1 0.6
2017-Jan-11 03:33N 35°27' E 139°39'0 0.1
2017-Jan-11 02:33N 35°27' E 139°39'0 0.0
2017-Jan-11 01:33N 35°27' E 139°39'0 0.0
2017-Jan-11 00:33N 35°27' E 139°39'0 0.0
2017-Jan-10 23:33N 35°27' E 139°39'0 0.0
2017-Jan-10 22:33N 35°27' E 139°39'  

Dump ship's entire track history